createdAt,value
2019-01-12T00:00:53.107Z,99635.58
2019-01-12T00:03:21.486Z,99631.30
2019-01-12T00:05:49.861Z,99629.25
2019-01-12T00:08:18.247Z,99631.50
2019-01-12T00:10:46.626Z,99630.73
2019-01-12T00:13:14.987Z,99635.66
2019-01-12T00:15:43.379Z,99630.47
2019-01-12T00:18:11.741Z,99633.20
2019-01-12T00:20:40.115Z,99629.80
2019-01-12T00:23:08.490Z,99628.58
2019-01-12T00:25:36.864Z,99622.06
2019-01-12T00:28:05.225Z,99620.90
2019-01-12T00:30:33.602Z,99624.41
2019-01-12T00:33:01.965Z,99622.72
2019-01-12T00:35:30.341Z,99614.02
2019-01-12T00:37:58.704Z,99617.12
2019-01-12T00:40:27.083Z,99615.04
2019-01-12T00:42:55.449Z,99616.45
2019-01-12T00:45:23.826Z,99617.41
2019-01-12T00:47:52.191Z,99620.52
2019-01-12T00:50:21.730Z,99622.03
2019-01-12T00:52:50.093Z,99620.34
2019-01-12T00:55:18.487Z,99619.09
2019-01-12T00:57:46.847Z,99626.65
2019-01-12T01:00:18.053Z,99627.60
2019-01-12T01:02:46.434Z,99620.69
2019-01-12T01:05:14.869Z,99624.29
2019-01-12T01:07:43.249Z,99618.14
2019-01-12T01:10:17.651Z,99622.66
2019-01-12T01:12:46.035Z,99616.15
2019-01-12T01:15:14.742Z,99621.99
2019-01-12T01:17:43.116Z,99621.99
2019-01-12T01:20:14.122Z,99627.37
2019-01-12T01:22:42.498Z,99629.65
2019-01-12T01:25:11.296Z,99625.78
2019-01-12T01:27:39.740Z,99624.55
2019-01-12T01:30:11.413Z,99629.90
2019-01-12T01:32:39.789Z,99629.90
2019-01-12T01:35:08.382Z,99624.25
2019-01-12T01:37:36.760Z,99624.80
2019-01-12T01:40:08.266Z,99628.40
2019-01-12T01:42:36.640Z,99633.28
2019-01-12T01:45:07.444Z,99631.14
2019-01-12T01:47:35.916Z,99630.73
2019-01-12T01:50:06.422Z,99635.28
2019-01-12T01:52:34.796Z,99634.88
2019-01-12T01:55:03.161Z,99636.76
2019-01-12T01:57:31.539Z,99639.49
2019-01-12T01:59:59.903Z,99640.91
2019-01-12T02:02:28.278Z,99635.63
2019-01-12T02:04:56.640Z,99632.61
2019-01-12T02:07:25.017Z,99629.57
2019-01-12T02:09:53.387Z,99631.39
2019-01-12T02:12:22.210Z,99627.89
2019-01-12T02:14:50.573Z,99633.23
2019-01-12T02:17:18.947Z,99631.91
2019-01-12T02:19:47.309Z,99626.31
2019-01-12T02:22:15.685Z,99624.53
2019-01-12T02:24:44.051Z,99617.63
2019-01-12T02:27:12.427Z,99624.72
2019-01-12T02:29:40.788Z,99619.98
2019-01-12T02:32:09.166Z,99619.22
2019-01-12T02:34:37.533Z,99624.05
2019-01-12T02:37:05.892Z,99627.14
2019-01-12T02:39:34.265Z,99619.31
2019-01-12T02:42:02.632Z,99620.63
2019-01-12T02:44:31.010Z,99613.72
2019-01-12T02:46:59.376Z,99622.05
2019-01-12T02:49:27.745Z,99615.54
2019-01-12T02:51:56.111Z,99606.39
2019-01-12T02:54:24.489Z,99601.19
2019-01-12T02:56:52.852Z,99603.89
2019-01-12T02:59:21.224Z,99594.28
2019-01-12T03:01:49.588Z,99596.56
2019-01-12T03:04:17.967Z,99596.06
2019-01-12T03:06:46.325Z,99595.33
2019-01-12T03:09:14.703Z,99595.79
2019-01-12T03:11:43.071Z,99589.28
2019-01-12T03:14:11.444Z,99589.28
2019-01-12T03:16:39.805Z,99589.73
2019-01-12T03:19:08.184Z,99584.15
2019-01-12T03:21:36.548Z,99589.43
2019-01-12T03:24:05.058Z,99583.78
2019-01-12T03:26:33.429Z,99588.20
2019-01-12T03:29:01.801Z,99579.91
2019-01-12T03:31:30.179Z,99577.37
2019-01-12T03:33:58.554Z,99569.54
2019-01-12T03:36:26.919Z,99577.83
2019-01-12T03:38:55.307Z,99575.28
2019-01-12T03:41:23.662Z,99571.87
2019-01-12T03:43:52.936Z,99563.58
2019-01-12T03:46:21.305Z,99571.09
2019-01-12T03:48:49.681Z,99560.54
2019-01-12T03:51:18.218Z,99557.99
2019-01-12T03:53:46.634Z,99554.03
2019-01-12T03:56:14.957Z,99559.31
2019-01-12T03:58:43.333Z,99559.89
2019-01-12T04:01:11.698Z,99555.94
2019-01-12T04:03:40.073Z,99556.00
2019-01-12T04:06:08.449Z,99550.72
2019-01-12T04:08:36.827Z,99559.13
2019-01-12T04:11:05.195Z,99556.95
2019-01-12T04:13:33.556Z,99549.98
2019-01-12T04:16:01.937Z,99547.80
2019-01-12T04:18:30.299Z,99547.41
2019-01-12T04:20:58.705Z,99547.03
2019-01-12T04:23:27.070Z,99546.08
2019-01-12T04:25:56.415Z,99547.48
2019-01-12T04:28:24.775Z,99541.39
2019-01-12T04:30:53.490Z,99537.02
2019-01-12T04:33:21.862Z,99534.02
2019-01-12T04:35:50.229Z,99534.02
2019-01-12T04:38:18.594Z,99528.83
2019-01-12T04:40:46.970Z,99528.34
2019-01-12T04:43:15.331Z,99530.61
2019-01-12T04:45:43.703Z,99525.80
2019-01-12T04:48:12.065Z,99528.16
2019-01-12T04:50:40.444Z,99525.88
2019-01-12T04:53:08.803Z,99533.80
2019-01-12T04:55:41.544Z,99529.47
2019-01-12T04:58:07.285Z,99530.80
2019-01-12T05:00:35.656Z,99527.30
2019-01-12T05:03:04.091Z,99525.61
2019-01-12T05:05:32.466Z,99524.38
2019-01-12T05:08:00.835Z,99529.25
2019-01-12T05:10:29.219Z,99525.70
2019-01-12T05:12:57.580Z,99522.66
2019-01-12T05:15:25.964Z,99523.13
2019-01-12T05:17:54.331Z,99520.11
2019-01-12T05:20:23.684Z,99525.84
2019-01-12T05:22:52.117Z,99526.34
2019-01-12T05:25:20.570Z,99529.34
2019-01-12T05:27:48.937Z,99528.12
2019-01-12T05:30:19.870Z,99529.07
2019-01-12T05:32:48.196Z,99531.71
2019-01-12T05:35:16.560Z,99531.77
2019-01-12T05:37:44.941Z,99528.77
2019-01-12T05:40:13.484Z,99534.41
2019-01-12T05:42:41.856Z,99526.58
2019-01-12T05:45:12.159Z,99537.14
2019-01-12T05:47:40.536Z,99534.99
2019-01-12T05:50:10.843Z,99535.45
2019-01-12T05:52:39.300Z,99541.67
2019-01-12T05:55:08.569Z,99543.00
2019-01-12T05:57:36.942Z,99548.28
2019-01-12T06:00:08.370Z,99542.14
2019-01-12T06:02:36.813Z,99540.41
2019-01-12T06:05:05.909Z,99543.45
2019-01-12T06:07:34.284Z,99532.05
2019-01-12T06:10:03.022Z,99546.09
2019-01-12T06:12:31.392Z,99541.73
2019-01-12T06:14:59.758Z,99548.33
2019-01-12T06:17:28.139Z,99546.09
2019-01-12T06:19:56.521Z,99544.31
2019-01-12T06:22:24.899Z,99543.91
2019-01-12T06:24:54.134Z,99544.87
2019-01-12T06:27:22.510Z,99547.51
2019-01-12T06:29:50.878Z,99545.69
2019-01-12T06:32:19.255Z,99537.78
2019-01-12T06:34:47.618Z,99536.95
2019-01-12T06:37:15.993Z,99542.69
2019-01-12T06:39:44.487Z,99541.73
2019-01-12T06:42:12.863Z,99538.73
2019-01-12T06:44:41.231Z,99537.41
2019-01-12T06:47:09.606Z,99544.37
2019-01-12T06:49:37.974Z,99537.87
2019-01-12T06:52:06.350Z,99532.59
2019-01-12T06:54:34.720Z,99527.41
2019-01-12T06:57:03.096Z,99525.62
2019-01-12T06:59:31.465Z,99528.72
2019-01-12T07:01:59.994Z,99522.63
2019-01-12T07:04:28.373Z,99519.98
2019-01-12T07:06:56.738Z,99506.79
2019-01-12T07:09:25.113Z,99509.48
2019-01-12T07:11:54.536Z,99509.80
2019-01-12T07:14:22.917Z,99502.89
2019-01-12T07:16:51.284Z,99500.74
2019-01-12T07:19:19.660Z,99494.42
2019-01-12T07:21:48.023Z,99489.23
2019-01-12T07:24:16.401Z,99491.02
2019-01-12T07:26:44.774Z,99481.59
2019-01-12T07:29:13.158Z,99481.59
2019-01-12T07:31:41.521Z,99486.59
2019-01-12T07:34:09.904Z,99487.92
2019-01-12T07:36:38.270Z,99486.23
2019-01-12T07:39:08.025Z,99488.38
2019-01-12T07:41:36.382Z,99487.06
2019-01-12T07:44:04.991Z,99488.38
2019-01-12T07:46:33.368Z,99490.65
2019-01-12T07:49:01.738Z,99489.42
2019-01-12T07:51:30.101Z,99488.10
2019-01-12T07:53:58.478Z,99491.60
2019-01-12T07:56:26.845Z,99482.83
2019-01-12T07:58:55.219Z,99485.06
2019-01-12T08:01:23.586Z,99478.87
2019-01-12T08:03:51.973Z,99477.09
2019-01-12T08:06:20.340Z,99473.96
2019-01-12T08:08:48.727Z,99466.81
2019-01-12T08:11:17.097Z,99469.91
2019-01-12T08:13:45.481Z,99464.27
2019-01-12T08:16:13.845Z,99461.17
2019-01-12T08:18:42.228Z,99459.84
2019-01-12T08:21:10.600Z,99451.94
2019-01-12T08:23:38.983Z,99451.84
2019-01-12T08:26:07.349Z,99451.94
2019-01-12T08:28:35.712Z,99443.25
2019-01-12T08:31:04.158Z,99433.55
2019-01-12T08:33:32.534Z,99442.80
2019-01-12T08:36:00.898Z,99433.62
2019-01-12T08:38:29.265Z,99427.11
2019-01-12T08:40:57.641Z,99418.83
2019-01-12T08:43:26.010Z,99422.33
2019-01-12T08:45:55.287Z,99414.97
2019-01-12T08:48:23.652Z,99395.18
2019-01-12T08:50:52.123Z,99400.83
2019-01-12T08:53:20.488Z,99395.24
2019-01-12T08:55:48.865Z,99392.97
2019-01-12T08:58:17.225Z,99384.30
2019-01-12T09:00:45.604Z,99382.97
2019-01-12T09:03:13.965Z,99380.83
2019-01-12T09:05:42.342Z,99385.70
2019-01-12T09:08:10.704Z,99389.66
2019-01-12T09:10:39.092Z,99391.94
2019-01-12T09:13:07.505Z,99403.25
2019-01-12T09:15:35.883Z,99417.85
2019-01-12T09:18:04.317Z,99424.51
2019-01-12T09:20:32.705Z,99410.39
2019-01-12T09:23:01.062Z,99388.44
2019-01-12T09:25:29.521Z,99397.30
2019-01-12T09:27:59.265Z,99380.62
2019-01-12T09:30:27.742Z,99387.21
2019-01-12T09:32:56.115Z,99376.66
2019-01-12T09:35:24.497Z,99380.62
2019-01-12T09:37:53.002Z,99367.06
2019-01-12T09:40:21.556Z,99367.89
2019-01-12T09:42:49.994Z,99358.29
2019-01-12T09:45:19.010Z,99348.20
2019-01-12T09:47:47.445Z,99352.16
2019-01-12T09:50:17.561Z,99351.70
2019-01-12T09:52:46.166Z,99346.42
2019-01-12T09:55:15.291Z,99355.65
2019-01-12T09:57:43.667Z,99351.70
2019-01-12T10:00:23.023Z,99349.06
2019-01-12T10:02:51.461Z,99343.78
2019-01-12T10:05:19.897Z,99342.37
2019-01-12T10:07:48.345Z,99337.65
2019-01-12T10:10:19.828Z,99336.23
2019-01-12T10:12:48.533Z,99338.41
2019-01-12T10:15:16.963Z,99327.86
2019-01-12T10:17:45.480Z,99323.45
2019-01-12T10:20:16.330Z,99312.80
2019-01-12T10:22:44.695Z,99300.53
2019-01-12T10:25:13.506Z,99306.20
2019-01-12T10:27:41.888Z,99301.02
2019-01-12T10:30:13.338Z,99292.25
2019-01-12T10:32:41.716Z,99284.89
2019-01-12T10:35:10.256Z,99275.66
2019-01-12T10:37:38.700Z,99267.75
2019-01-12T10:40:12.725Z,99255.88
2019-01-12T10:42:41.163Z,99248.83
2019-01-12T10:45:12.569Z,99247.11
2019-01-12T10:47:42.685Z,99243.65
2019-01-12T10:50:17.412Z,99240.16
2019-01-12T10:52:45.789Z,99242.33
2019-01-12T10:55:14.157Z,99245.43
2019-01-12T10:57:42.534Z,99243.65
2019-01-12T11:00:17.516Z,99243.65
2019-01-12T11:02:45.896Z,99247.70
2019-01-12T11:05:14.531Z,99243.75
2019-01-12T11:07:42.908Z,99241.57
2019-01-12T11:10:13.114Z,99228.75
2019-01-12T11:12:41.557Z,99225.74
2019-01-12T11:15:15.973Z,99227.06
2019-01-12T11:17:44.344Z,99219.16
2019-01-12T11:20:12.844Z,99212.55
2019-01-12T11:22:41.355Z,99207.28
2019-01-12T11:25:12.163Z,99207.28
2019-01-12T11:27:40.601Z,99200.13
2019-01-12T11:30:14.922Z,99204.19
2019-01-12T11:32:43.303Z,99195.78
2019-01-12T11:35:11.805Z,99185.72
2019-01-12T11:37:40.258Z,99179.95
2019-01-12T11:40:11.688Z,99174.68
2019-01-12T11:42:40.058Z,99174.12
2019-01-12T11:45:08.762Z,99182.12
2019-01-12T11:47:37.134Z,99171.58
2019-01-12T11:50:08.553Z,99174.88
2019-01-12T11:52:36.925Z,99163.97
2019-01-12T11:55:07.730Z,99157.73
2019-01-12T11:57:36.099Z,99157.73
2019-01-12T12:00:16.644Z,99151.60
2019-01-12T12:02:45.023Z,99139.27
2019-01-12T12:05:13.526Z,99129.75
2019-01-12T12:07:41.908Z,99131.00
2019-01-12T12:10:12.418Z,99122.98
2019-01-12T12:12:40.783Z,99120.91
2019-01-12T12:15:12.509Z,99113.45
2019-01-12T12:17:40.871Z,99113.45
2019-01-12T12:20:12.665Z,99100.27
2019-01-12T12:22:41.034Z,99092.26
2019-01-12T12:25:09.547Z,99083.98
2019-01-12T12:27:37.916Z,99079.83
2019-01-12T12:30:12.361Z,99059.94
2019-01-12T12:32:40.731Z,99048.47
2019-01-12T12:35:09.106Z,99055.42
2019-01-12T12:37:37.633Z,99049.62
2019-01-12T12:40:08.958Z,99035.01
2019-01-12T12:42:37.320Z,99027.35
2019-01-12T12:45:08.745Z,99017.09
2019-01-12T12:47:37.113Z,99016.98
2019-01-12T12:50:11.603Z,99000.95
2019-01-12T12:52:39.968Z,98992.11
2019-01-12T12:55:09.583Z,98991.15
2019-01-12T12:57:37.946Z,98979.56
2019-01-12T13:00:12.245Z,98978.89
2019-01-12T13:02:40.610Z,98977.27
2019-01-12T13:05:10.078Z,98975.27
2019-01-12T13:07:38.507Z,98968.10
2019-01-12T13:10:10.158Z,98965.14
2019-01-12T13:12:38.661Z,98962.76
2019-01-12T13:15:08.178Z,98958.98
2019-01-12T13:17:36.609Z,98956.52
2019-01-12T13:20:10.839Z,98950.45
2019-01-12T13:22:39.209Z,98936.07
2019-01-12T13:25:08.126Z,98938.78
2019-01-12T13:27:39.935Z,98934.14
2019-01-12T13:30:09.672Z,98927.21
2019-01-12T13:32:38.055Z,98920.31
2019-01-12T13:35:07.884Z,98919.88
2019-01-12T13:37:36.249Z,98918.07
2019-01-12T13:40:07.887Z,98907.06
2019-01-12T13:42:37.032Z,98907.47
2019-01-12T13:45:08.636Z,98899.38
2019-01-12T13:47:37.001Z,98896.56
2019-01-12T13:50:08.444Z,98891.48
2019-01-12T13:52:36.807Z,98884.31
2019-01-12T13:55:08.529Z,98890.27
2019-01-12T13:57:36.887Z,98878.65
2019-01-12T14:00:08.321Z,98878.81
2019-01-12T14:02:37.165Z,98868.07
2019-01-12T14:05:07.185Z,98860.78
2019-01-12T14:07:35.554Z,98855.77
2019-01-12T14:10:06.879Z,98854.97
2019-01-12T14:12:35.260Z,98857.05
2019-01-12T14:15:05.499Z,98859.45
2019-01-12T14:17:33.890Z,98847.44
2019-01-12T14:20:02.591Z,98845.08
2019-01-12T14:22:30.974Z,98841.09
2019-01-12T14:24:59.337Z,98842.34
2019-01-12T14:27:28.141Z,98837.92
2019-01-12T14:29:56.510Z,98836.11
2019-01-12T14:32:25.289Z,98841.77
2019-01-12T14:34:53.717Z,98825.88
2019-01-12T14:37:22.106Z,98831.06
2019-01-12T14:39:50.481Z,98825.27
2019-01-12T14:42:18.870Z,98816.12
2019-01-12T14:44:47.312Z,98815.16
2019-01-12T14:47:15.694Z,98812.38
2019-01-12T14:49:44.056Z,98813.45
2019-01-12T14:52:12.515Z,98812.82
2019-01-12T14:54:40.998Z,98803.45
2019-01-12T14:57:09.528Z,98810.16
2019-01-12T14:59:37.923Z,98804.72
2019-01-12T15:02:06.522Z,98809.28
2019-01-12T15:04:35.096Z,98803.37
2019-01-12T15:07:03.583Z,98799.08
2019-01-12T15:09:31.940Z,98800.77
2019-01-12T15:12:00.344Z,98804.23
2019-01-12T15:14:28.947Z,98799.63
2019-01-12T15:16:57.366Z,98796.95
2019-01-12T15:19:25.731Z,98799.58
2019-01-12T15:21:54.122Z,98796.30
2019-01-12T15:24:22.646Z,98791.44
2019-01-12T15:26:51.167Z,98791.89
2019-01-12T15:29:19.537Z,98796.19
2019-01-12T15:31:47.924Z,98793.38
2019-01-12T15:34:16.366Z,98780.67
2019-01-12T15:36:44.761Z,98780.48
2019-01-12T15:39:13.339Z,98789.03
2019-01-12T15:41:41.713Z,98789.61
2019-01-12T15:44:10.144Z,98788.52
2019-01-12T15:46:38.533Z,98770.84
2019-01-12T15:49:06.975Z,98774.08
2019-01-12T15:51:35.349Z,98777.21
2019-01-12T15:54:03.740Z,98777.79
2019-01-12T15:56:32.178Z,98773.66
2019-01-12T15:59:00.555Z,98762.69
2019-01-12T16:01:29.020Z,98766.87
2019-01-12T16:03:57.401Z,98762.62
2019-01-12T16:06:25.768Z,98762.52
2019-01-12T16:08:54.152Z,98754.27
2019-01-12T16:11:22.589Z,98753.65
2019-01-12T16:13:51.266Z,98749.02
2019-01-12T16:16:19.632Z,98733.06
2019-01-12T16:18:48.076Z,98741.75
2019-01-12T16:21:16.441Z,98741.75
2019-01-12T16:23:44.821Z,98732.45
2019-01-12T16:26:13.266Z,98728.13
2019-01-12T16:28:41.886Z,98726.28
2019-01-12T16:31:10.261Z,98734.25
2019-01-12T16:33:38.640Z,98729.93
2019-01-12T16:36:07.085Z,98724.75
2019-01-12T16:38:35.535Z,98719.10
2019-01-12T16:41:03.898Z,98714.60
2019-01-12T16:43:32.477Z,98711.95
2019-01-12T16:46:00.850Z,98714.13
2019-01-12T16:48:29.383Z,98712.45
2019-01-12T16:50:57.754Z,98702.30
2019-01-12T16:53:26.137Z,98693.96
2019-01-12T16:55:54.507Z,98694.95
2019-01-12T16:58:22.884Z,98688.92
2019-01-12T17:00:51.243Z,98687.25
2019-01-12T17:03:19.761Z,98686.06
2019-01-12T17:05:48.143Z,98686.69
2019-01-12T17:08:16.509Z,98687.16
2019-01-12T17:10:45.012Z,98697.80
2019-01-12T17:13:13.376Z,98698.78
2019-01-12T17:15:41.756Z,98698.30
2019-01-12T17:18:10.119Z,98697.59
2019-01-12T17:20:38.501Z,98709.04
2019-01-12T17:23:06.954Z,98698.92
2019-01-12T17:25:35.374Z,98687.92
2019-01-12T17:28:03.743Z,98685.41
2019-01-12T17:30:32.113Z,98686.73
2019-01-12T17:33:00.544Z,98684.92
2019-01-12T17:35:29.699Z,98665.84
2019-01-12T17:37:58.129Z,98680.94
2019-01-12T17:40:26.500Z,98664.52
2019-01-12T17:42:54.875Z,98662.20
2019-01-12T17:45:24.695Z,98659.89
2019-01-12T17:47:53.223Z,98653.75
2019-01-12T17:50:23.559Z,98651.72
2019-01-12T17:52:51.999Z,98658.98
2019-01-12T17:55:22.408Z,98665.14
2019-01-12T17:57:50.777Z,98649.45
2019-01-12T18:00:31.916Z,98657.98
2019-01-12T18:03:00.409Z,98657.51
2019-01-12T18:05:28.780Z,98652.67
2019-01-12T18:07:57.149Z,98661.21
2019-01-12T18:10:25.529Z,98660.59
2019-01-12T18:12:53.898Z,98656.61
2019-01-12T18:15:22.286Z,98658.78
2019-01-12T18:17:50.660Z,98645.84
2019-01-12T18:20:19.202Z,98660.20
2019-01-12T18:22:47.737Z,98655.23
2019-01-12T18:25:16.944Z,98662.35
2019-01-12T18:27:45.485Z,98669.84
2019-01-12T18:30:16.777Z,98668.04
2019-01-12T18:32:45.312Z,98668.38
2019-01-12T18:35:13.683Z,98676.69
2019-01-12T18:37:42.062Z,98674.54
2019-01-12T18:40:13.152Z,98679.00
2019-01-12T18:42:41.596Z,98677.67
2019-01-12T18:45:13.009Z,98676.06
2019-01-12T18:47:42.036Z,98677.67
2019-01-12T18:50:16.017Z,98678.30
2019-01-12T18:52:44.427Z,98674.31
2019-01-12T18:55:14.105Z,98666.34
2019-01-12T18:57:42.489Z,98677.95
2019-01-12T19:00:18.532Z,98667.95
2019-01-12T19:02:47.146Z,98666.76
2019-01-12T19:05:15.695Z,98665.43
2019-01-12T19:07:44.069Z,98665.09
2019-01-12T19:10:13.742Z,98667.86
2019-01-12T19:12:42.186Z,98671.02
2019-01-12T19:15:13.832Z,98679.95
2019-01-12T19:17:42.276Z,98679.95
2019-01-12T19:20:10.786Z,98676.95
2019-01-12T19:22:39.159Z,98679.24
2019-01-12T19:25:10.358Z,98681.19
2019-01-12T19:27:38.737Z,98670.19
2019-01-12T19:30:10.148Z,98663.20
2019-01-12T19:32:38.525Z,98668.66
2019-01-12T19:35:07.157Z,98670.27
2019-01-12T19:37:35.612Z,98666.39
2019-01-12T19:40:05.751Z,98656.04
2019-01-12T19:42:34.128Z,98661.97
2019-01-12T19:45:02.492Z,98662.95
2019-01-12T19:47:30.983Z,98648.62
2019-01-12T19:49:59.349Z,98654.55
2019-01-12T19:52:27.723Z,98650.34
2019-01-12T19:54:56.089Z,98663.28
2019-01-12T19:57:24.466Z,98662.94
2019-01-12T19:59:52.829Z,98651.74
2019-01-12T20:02:21.278Z,98644.87
2019-01-12T20:04:49.645Z,98648.99
2019-01-12T20:07:18.029Z,98639.97
2019-01-12T20:09:46.464Z,98654.20
2019-01-12T20:12:14.847Z,98663.77
2019-01-12T20:14:43.210Z,98648.45
2019-01-12T20:17:11.573Z,98644.41
2019-01-12T20:19:39.949Z,98647.20
2019-01-12T20:22:08.385Z,98637.33
2019-01-12T20:24:36.791Z,98634.31
2019-01-12T20:27:05.222Z,98644.34
2019-01-12T20:29:33.597Z,98639.17
2019-01-12T20:32:21.284Z,98644.28
2019-01-12T20:34:49.726Z,98651.05
2019-01-12T20:37:36.005Z,98637.20
2019-01-12T20:40:16.592Z,98643.98
2019-01-12T20:43:05.907Z,98638.91
2019-01-12T20:45:39.970Z,98643.64
2019-01-12T20:48:23.320Z,98634.59
2019-01-12T20:51:06.758Z,98639.18
2019-01-12T20:54:04.973Z,98642.48
2019-01-12T20:56:42.228Z,98637.06
2019-01-12T20:59:16.534Z,98631.05
2019-01-12T21:01:59.939Z,98630.84
2019-01-12T21:04:37.298Z,98623.83
2019-01-12T21:07:14.380Z,98619.17
2019-01-12T21:10:03.722Z,98624.38
2019-01-12T21:13:03.304Z,98635.46
2019-01-12T21:15:34.963Z,98627.30
2019-01-12T21:18:03.333Z,98624.54
2019-01-12T21:20:31.711Z,98623.69
2019-01-12T21:23:00.083Z,98623.48
2019-01-12T21:25:28.458Z,98611.81
2019-01-12T21:27:56.822Z,98613.75
2019-01-12T21:30:25.275Z,98617.34
2019-01-12T21:32:53.647Z,98625.09
2019-01-12T21:35:22.020Z,98619.08
2019-01-12T21:37:50.390Z,98622.34
2019-01-12T21:40:18.767Z,98612.48
2019-01-12T21:42:48.147Z,98619.23
2019-01-12T21:45:16.664Z,98622.88
2019-01-12T21:47:45.100Z,98622.63
2019-01-12T21:50:15.314Z,98614.09
2019-01-12T21:52:43.728Z,98614.59
2019-01-12T21:55:12.174Z,98622.31
2019-01-12T21:57:40.555Z,98614.48
2019-01-12T22:00:14.835Z,98614.96
2019-01-12T22:02:43.195Z,98618.35
2019-01-12T22:05:12.694Z,98619.47
2019-01-12T22:07:41.068Z,98616.44
2019-01-12T22:10:19.055Z,98609.70
2019-01-12T22:12:42.765Z,98614.16
2019-01-12T22:15:14.137Z,98607.79
2019-01-12T22:17:42.513Z,98606.47
2019-01-12T22:20:17.241Z,98611.52
2019-01-12T22:22:45.689Z,98602.88
2019-01-12T22:25:14.172Z,98614.94
2019-01-12T22:27:42.555Z,98615.04
2019-01-12T22:30:13.971Z,98620.47
2019-01-12T22:32:42.357Z,98620.98
2019-01-12T22:35:11.080Z,98621.20
2019-01-12T22:37:39.448Z,98630.14
2019-01-12T22:40:10.868Z,98625.92
2019-01-12T22:42:39.232Z,98623.40
2019-01-12T22:45:07.735Z,98624.50
2019-01-12T22:47:36.116Z,98617.88
2019-01-12T22:50:09.794Z,98620.80
2019-01-12T22:52:38.239Z,98615.12
2019-01-12T22:55:09.937Z,98615.85
2019-01-12T22:57:38.313Z,98618.62
2019-01-12T23:00:27.679Z,98613.46
2019-01-12T23:02:56.125Z,98611.66
2019-01-12T23:05:24.490Z,98615.52
2019-01-12T23:07:52.865Z,98617.44
2019-01-12T23:10:21.227Z,98611.33
2019-01-12T23:12:49.608Z,98613.25
2019-01-12T23:15:18.985Z,98612.88
2019-01-12T23:17:47.355Z,98614.45
2019-01-12T23:20:15.791Z,98605.66
2019-01-12T23:22:44.232Z,98602.20
2019-01-12T23:25:12.596Z,98596.66
2019-01-12T23:27:40.960Z,98607.75
2019-01-12T23:30:14.532Z,98600.88
2019-01-12T23:32:42.905Z,98593.06
2019-01-12T23:35:12.124Z,98598.48
2019-01-12T23:37:40.486Z,98597.30
2019-01-12T23:40:13.274Z,98591.28
2019-01-12T23:42:41.662Z,98592.86
2019-01-12T23:45:14.614Z,98584.06
2019-01-12T23:47:42.982Z,98583.81
2019-01-12T23:50:12.999Z,98585.64
2019-01-12T23:52:41.446Z,98587.09
2019-01-12T23:55:10.896Z,98584.92
2019-01-12T23:57:39.501Z,98587.57
